Time;durP1;ratioP1;P1;durP2;ratioP2;P2;SDS_P1;SDS_P2;PMS_P1;PMS_P2;Temp;Humidity;BMP_temperature;BMP_pressure;BME280_temperature;BME280_humidity;BME280_pressure;Samples;Min_cycle;Max_cycle;Signal;HPM_P1;HPM_P2
2022/07/20 00:01:38;;;;;;;14.07;7.00;;;23.60;63.60;;;;;;4969629;28;20043;-66
2022/07/20 00:04:04;;;;;;;11.15;7.13;;;23.60;63.10;;;;;;4971324;28;20042;-66
2022/07/20 00:06:29;;;;;;;14.85;8.27;;;23.60;62.70;;;;;;4973012;28;20053;-66
2022/07/20 00:11:39;;;;;;;9.30;6.63;;;23.60;62.50;;;;;;4968705;28;20039;-66
2022/07/20 00:14:05;;;;;;;15.25;7.22;;;23.60;62.30;;;;;;4972761;28;20046;-66
2022/07/20 00:16:33;;;;;;;8.10;6.63;;;23.60;62.50;;;;;;4965990;28;20047;-66
2022/07/20 00:18:59;;;;;;;8.55;7.10;;;23.70;61.80;;;;;;4955444;28;20503;-66
2022/07/20 00:21:24;;;;;;;9.88;6.95;;;23.70;61.70;;;;;;4971988;28;20038;-66
2022/07/20 00:23:50;;;;;;;10.48;6.93;;;23.70;61.50;;;;;;4970724;28;20109;-66
2022/07/20 00:26:16;;;;;;;9.20;6.47;;;23.70;61.60;;;;;;4966230;28;20039;-66
2022/07/20 00:28:42;;;;;;;13.85;6.95;;;23.70;61.20;;;;;;4972517;28;20041;-66
2022/07/20 00:31:08;;;;;;;14.00;6.95;;;23.60;61.10;;;;;;4972152;28;20043;-66
2022/07/20 00:33:34;;;;;;;8.23;6.97;;;23.60;61.90;;;;;;4954998;28;20046;-66
2022/07/20 00:36:00;;;;;;;11.75;6.80;;;23.60;61.20;;;;;;4970686;28;20043;-66
2022/07/20 00:38:26;;;;;;;8.85;6.65;;;23.60;61.10;;;;;;4971747;28;20027;-66
2022/07/20 00:40:52;;;;;;;14.82;6.95;;;23.60;61.10;;;;;;4967032;28;20035;-66
2022/07/20 00:43:17;;;;;;;7.80;7.00;;;23.60;61.00;;;;;;4968232;28;20038;-66
2022/07/20 00:45:43;;;;;;;17.48;7.13;;;23.50;61.00;;;;;;4971525;28;20050;-66
2022/07/20 00:48:08;;;;;;;11.43;7.45;;;23.50;61.30;;;;;;4971622;28;20043;-66
2022/07/20 00:50:34;;;;;;;9.25;7.35;;;23.50;61.40;;;;;;4948239;28;20211;-66
2022/07/20 00:53:01;;;;;;;15.07;7.38;;;23.40;61.70;;;;;;4970465;28;20093;-66
2022/07/20 00:55:27;;;;;;;13.27;7.53;;;23.40;61.70;;;;;;4971895;28;20042;-66
2022/07/20 00:57:53;;;;;;;12.88;7.63;;;23.20;62.00;;;;;;4972709;28;20081;-66
2022/07/20 01:00:19;;;;;;;10.75;7.05;;;23.20;62.30;;;;;;4962019;28;20042;-66
2022/07/20 01:02:44;;;;;;;11.32;7.22;;;23.10;62.60;;;;;;4969988;28;20039;-66
2022/07/20 01:05:14;;;;;;;9.77;7.60;;;23.20;62.20;;;;;;4970855;28;20035;-66
2022/07/20 01:07:47;;;;;;;8.57;7.30;;;23.10;62.20;;;;;;4963736;28;20479;-66
2022/07/20 01:10:14;;;;;;;10.20;7.38;;;23.10;62.60;;;;;;4970987;28;20042;-66
2022/07/20 01:12:45;;;;;;;13.52;7.72;;;23.10;62.40;;;;;;4970694;28;20474;-66
2022/07/20 01:15:10;;;;;;;;;;;23.10;62.90;;;;;;4971616;28;20070;-66
2022/07/20 01:17:36;;;;;;;8.88;7.25;;;23.00;64.10;;;;;;4964889;28;19918;-65
2022/07/20 01:20:03;;;;;;;12.93;8.00;;;22.90;62.70;;;;;;4970559;28;20471;-67
2022/07/20 01:22:28;;;;;;;12.57;7.80;;;22.90;62.90;;;;;;4969792;28;20446;-66
2022/07/20 01:24:54;;;;;;;10.20;8.15;;;22.90;63.00;;;;;;4942687;28;20134;-66
2022/07/20 01:27:20;;;;;;;15.07;7.93;;;22.90;63.30;;;;;;4970851;28;20086;-66
2022/07/20 01:29:45;;;;;;;11.57;8.40;;;22.80;63.50;;;;;;4971140;28;20034;-66
2022/07/20 01:32:11;;;;;;;10.30;8.13;;;22.80;63.50;;;;;;4968240;28;20406;-66
2022/07/20 01:34:36;;;;;;;12.38;8.35;;;22.80;63.50;;;;;;4931554;28;1078216;-65
2022/07/20 01:37:02;;;;;;;11.43;8.45;;;22.80;63.80;;;;;;4971250;28;20082;-66
2022/07/20 01:39:28;;;;;;;12.55;8.32;;;22.80;63.70;;;;;;4968676;28;20031;-66
2022/07/20 01:41:54;;;;;;;12.48;8.25;;;22.70;64.00;;;;;;4959409;28;20040;-66
2022/07/20 01:44:23;;;;;;;9.23;7.72;;;22.70;64.10;;;;;;4971389;28;20030;-66
2022/07/20 01:46:50;;;;;;;11.32;8.65;;;22.70;64.40;;;;;;4971452;28;20042;-66
2022/07/20 01:49:16;;;;;;;12.52;7.95;;;22.60;64.80;;;;;;4968891;28;20073;-66
2022/07/20 01:51:42;;;;;;;12.45;8.70;;;22.60;65.10;;;;;;4965438;28;20492;-66
2022/07/20 01:54:08;;;;;;;13.93;8.57;;;22.50;65.70;;;;;;4970371;28;20101;-66
2022/07/20 01:56:34;;;;;;;13.20;8.50;;;22.50;65.60;;;;;;4969185;28;20046;-66
2022/07/20 01:59:00;;;;;;;18.92;8.93;;;22.50;65.60;;;;;;4962145;28;20102;-66
2022/07/20 02:01:25;;;;;;;11.65;8.13;;;22.40;66.10;;;;;;4975449;28;20104;-66
2022/07/20 02:03:51;;;;;;;10.57;8.95;;;22.30;66.40;;;;;;4991077;28;20073;-65
2022/07/20 02:06:16;;;;;;;11.57;8.57;;;22.30;67.10;;;;;;4977461;28;20066;-66
2022/07/20 02:08:42;;;;;;;10.25;8.30;;;22.30;67.30;;;;;;4970960;28;20034;-66
2022/07/20 02:11:08;;;;;;;11.05;8.32;;;22.20;67.40;;;;;;4970823;28;20495;-66
2022/07/20 02:13:35;;;;;;;10.50;8.38;;;22.20;68.90;;;;;;4966655;28;20039;-65
2022/07/20 02:16:17;;;;;;;12.02;8.70;;;22.20;68.60;;;;;;4965363;28;20404;-66
2022/07/20 02:18:46;;;;;;;13.13;8.77;;;22.10;68.80;;;;;;4971229;28;20093;-66
2022/07/20 02:21:12;;;;;;;14.07;8.82;;;22.10;69.10;;;;;;4953864;28;20082;-66
2022/07/20 02:23:38;;;;;;;11.85;8.70;;;22.10;69.40;;;;;;4961279;28;20035;-65
2022/07/20 02:26:04;;;;;;;10.57;8.43;;;22.00;69.60;;;;;;4969795;28;20106;-66
2022/07/20 02:28:30;;;;;;;10.98;8.90;;;22.00;69.60;;;;;;4970862;28;20035;-66
2022/07/20 02:30:55;;;;;;;14.38;8.63;;;22.00;70.20;;;;;;4960800;28;20531;-66
2022/07/20 02:33:21;;;;;;;11.80;9.05;;;21.90;70.80;;;;;;4964076;28;20050;-66
2022/07/20 02:35:47;;;;;;;13.55;9.43;;;21.90;71.00;;;;;;4974195;28;20078;-66
2022/07/20 02:38:12;;;;;;;14.98;8.68;;;21.80;71.50;;;;;;4974877;28;20038;-66
2022/07/20 02:40:38;;;;;;;13.75;8.90;;;21.70;71.90;;;;;;4962676;28;20073;-65
2022/07/20 02:43:05;;;;;;;16.95;9.30;;;21.70;72.30;;;;;;4955267;28;20559;-66
2022/07/20 02:45:31;;;;;;;13.38;8.82;;;21.60;73.10;;;;;;4953915;28;20083;-66
2022/07/20 02:48:02;;;;;;;13.02;8.90;;;21.60;73.10;;;;;;4963766;28;20117;-65
2022/07/20 02:50:30;;;;;;;14.35;9.07;;;21.50;74.00;;;;;;4970716;28;20503;-65
2022/07/20 02:52:56;;;;;;;14.55;9.13;;;21.40;75.20;;;;;;4971736;28;20049;-66
2022/07/20 02:55:21;;;;;;;10.10;8.70;;;21.40;75.40;;;;;;4971842;28;20042;-65
2022/07/20 02:57:47;;;;;;;14.15;9.10;;;21.40;75.90;;;;;;4960444;28;20043;-66
2022/07/20 03:00:13;;;;;;;12.32;8.85;;;21.40;75.90;;;;;;4972659;28;20053;-66
2022/07/20 03:02:39;;;;;;;12.13;8.98;;;21.40;76.90;;;;;;4985974;28;20065;-66
2022/07/20 03:05:05;;;;;;;12.73;9.73;;;21.40;76.90;;;;;;4971832;28;20042;-66
2022/07/20 03:07:30;;;;;;;17.77;10.07;;;21.40;76.90;;;;;;4973833;28;20031;-66
2022/07/20 03:09:56;;;;;;;12.48;9.05;;;21.40;76.80;;;;;;4974161;28;20491;-66
2022/07/20 03:12:22;;;;;;;15.90;9.23;;;21.40;76.70;;;;;;4973684;28;20039;-66
2022/07/20 03:14:48;;;;;;;13.02;9.40;;;21.40;76.70;;;;;;4964364;28;20041;-66
2022/07/20 03:17:13;;;;;;;12.25;9.02;;;21.30;77.40;;;;;;4968165;28;20043;-66
2022/07/20 03:19:39;;;;;;;12.57;9.15;;;21.30;77.80;;;;;;4973825;28;20061;-66
2022/07/20 03:22:05;;;;;;;16.95;9.50;;;21.30;78.10;;;;;;4962611;28;20051;-66
2022/07/20 03:24:31;;;;;;;13.02;9.27;;;21.20;78.40;;;;;;4968338;28;20487;-65
2022/07/20 03:26:56;;;;;;;15.57;9.90;;;21.20;78.50;;;;;;4971092;28;20038;-66
2022/07/20 03:29:22;;;;;;;14.43;9.30;;;21.20;79.00;;;;;;4973787;28;20539;-65
2022/07/20 03:31:48;;;;;;;16.08;9.43;;;21.10;79.10;;;;;;4965902;28;20053;-65
2022/07/20 03:34:13;;;;;;;16.73;9.88;;;21.10;79.80;;;;;;4973054;28;20037;-66
2022/07/20 03:36:39;;;;;;;11.77;8.82;;;21.10;80.20;;;;;;4970905;28;20038;-66
2022/07/20 03:39:04;;;;;;;15.43;9.15;;;21.10;80.60;;;;;;4963856;28;20529;-66
2022/07/20 03:41:30;;;;;;;11.70;9.07;;;21.10;80.80;;;;;;4972283;28;20042;-66
2022/07/20 03:43:56;;;;;;;13.43;9.10;;;21.10;81.30;;;;;;4973586;28;20130;-66
2022/07/20 03:46:21;;;;;;;11.98;9.35;;;21.10;81.50;;;;;;4967756;28;20502;-66
2022/07/20 03:48:47;;;;;;;11.20;9.23;;;21.10;81.80;;;;;;4973007;28;20043;-66
2022/07/20 03:51:12;;;;;;;17.73;8.73;;;21.10;82.50;;;;;;4973177;28;20049;-65
2022/07/20 03:53:38;;;;;;;12.10;8.65;;;21.10;82.40;;;;;;4964078;28;20058;-66
2022/07/20 03:56:04;;;;;;;15.77;9.10;;;21.00;82.50;;;;;;4959976;28;20480;-66
2022/07/20 03:58:30;;;;;;;11.65;8.70;;;21.10;82.10;;;;;;4972976;28;20031;-66
2022/07/20 04:00:55;;;;;;;10.73;9.20;;;21.00;82.70;;;;;;4972663;28;20053;-66
2022/07/20 04:03:21;;;;;;;14.90;9.02;;;21.00;83.60;;;;;;4962418;28;20027;-65
2022/07/20 04:05:47;;;;;;;25.95;9.63;;;21.00;84.00;;;;;;4971142;28;20042;-65
2022/07/20 04:08:13;;;;;;;15.65;8.82;;;21.00;84.20;;;;;;4973064;28;20043;-66
2022/07/20 04:10:38;;;;;;;17.42;8.88;;;21.00;84.80;;;;;;4962562;28;20046;-66
2022/07/20 04:13:05;;;;;;;12.88;9.15;;;21.00;84.80;;;;;;4939446;28;20039;-66
2022/07/20 04:15:31;;;;;;;13.80;8.88;;;21.00;85.20;;;;;;4973096;28;20114;-66
2022/07/20 04:17:57;;;;;;;14.35;8.93;;;21.00;85.00;;;;;;4973068;28;20110;-66
2022/07/20 04:20:22;;;;;;;16.40;8.77;;;21.10;85.80;;;;;;4966877;28;20042;-65
2022/07/20 04:22:48;;;;;;;17.98;9.38;;;21.10;85.80;;;;;;4968423;28;20035;-66
2022/07/20 04:25:14;;;;;;;18.90;8.93;;;21.10;85.50;;;;;;4964449;28;20061;-65
2022/07/20 04:27:39;;;;;;;14.40;8.70;;;21.10;85.80;;;;;;4963379;28;20043;-66
2022/07/20 04:30:06;;;;;;;15.40;8.77;;;21.10;85.50;;;;;;4971172;28;20062;-66
2022/07/20 04:32:32;;;;;;;10.85;8.77;;;21.10;85.40;;;;;;4954896;28;20088;-66
2022/07/20 04:34:57;;;;;;;16.73;9.00;;;21.20;85.40;;;;;;4972856;28;20509;-66
2022/07/20 04:37:23;;;;;;;17.30;8.95;;;21.20;85.70;;;;;;4968046;28;20038;-66
2022/07/20 04:39:48;;;;;;;15.20;9.10;;;21.20;85.60;;;;;;4968593;28;20027;-65
2022/07/20 04:42:14;;;;;;;12.48;8.52;;;21.30;85.70;;;;;;4951624;29;20062;-66
2022/07/20 04:44:40;;;;;;;11.13;8.82;;;21.20;86.10;;;;;;4957143;28;20503;-66
2022/07/20 04:47:05;;;;;;;9.15;8.15;;;21.20;86.40;;;;;;4972039;28;20046;-65
2022/07/20 04:49:31;;;;;;;18.20;8.30;;;21.10;90.10;;;;;;4972035;28;20116;-65
2022/07/20 04:51:57;;;;;;;16.95;9.00;;;21.10;90.90;;;;;;4962930;28;20042;-65
2022/07/20 04:54:22;;;;;;;17.02;8.82;;;21.00;91.50;;;;;;4971326;28;20527;-66
2022/07/20 04:56:49;;;;;;;12.80;9.63;;;21.00;91.70;;;;;;4971265;28;20035;-65
2022/07/20 04:59:14;;;;;;;13.82;9.45;;;21.00;91.50;;;;;;4967978;28;20034;-66
2022/07/20 05:01:40;;;;;;;13.20;9.15;;;21.10;91.70;;;;;;4956125;28;20130;-66
2022/07/20 05:04:07;;;;;;;15.35;8.52;;;21.10;91.50;;;;;;4963754;28;20039;-66
2022/07/20 05:06:32;;;;;;;19.17;9.90;;;21.10;91.90;;;;;;4972028;28;20667;-66
2022/07/20 05:08:58;;;;;;;12.80;9.23;;;21.20;91.50;;;;;;4962104;28;20042;-66
2022/07/20 05:11:26;;;;;;;14.30;9.65;;;21.30;91.60;;;;;;4970445;28;20064;-66
2022/07/20 05:13:52;;;;;;;10.48;8.90;;;21.30;91.70;;;;;;4971702;28;20042;-66
2022/07/20 05:16:18;;;;;;;16.40;9.52;;;21.40;91.60;;;;;;4966074;28;20035;-65
2022/07/20 05:18:44;;;;;;;10.50;9.23;;;21.50;91.50;;;;;;4958824;28;20402;-66
2022/07/20 05:21:10;;;;;;;16.63;9.63;;;21.50;91.60;;;;;;4970268;28;20035;-65
2022/07/20 05:23:36;;;;;;;16.55;9.05;;;21.60;91.10;;;;;;4954171;28;20484;-66
2022/07/20 05:26:02;;;;;;;14.98;8.40;;;21.70;91.10;;;;;;4966099;28;20763;-65
2022/07/20 05:28:28;;;;;;;12.98;9.02;;;21.80;91.20;;;;;;4971037;28;20122;-65
2022/07/20 05:30:54;;;;;;;15.55;8.70;;;21.80;91.00;;;;;;4971406;28;20126;-65
2022/07/20 05:33:19;;;;;;;10.65;8.70;;;21.90;90.90;;;;;;4963334;28;20066;-65
2022/07/20 05:35:46;;;;;;;10.75;8.15;;;22.00;91.00;;;;;;4963529;28;20040;-65
2022/07/20 05:38:12;;;;;;;15.30;8.70;;;22.10;91.10;;;;;;4970340;28;20071;-67
2022/07/20 05:40:38;;;;;;;14.63;8.88;;;22.10;91.30;;;;;;4969354;28;20041;-69
2022/07/20 05:43:03;;;;;;;12.93;8.80;;;22.10;91.70;;;;;;4949200;28;20038;-66
2022/07/20 05:45:29;;;;;;;11.82;8.23;;;22.20;92.00;;;;;;4953833;28;20066;-65
2022/07/20 05:47:55;;;;;;;9.75;7.90;;;22.30;91.90;;;;;;4971588;28;20041;-65
2022/07/20 05:50:20;;;;;;;22.92;8.60;;;22.40;92.00;;;;;;4960500;28;20073;-64
2022/07/20 05:52:46;;;;;;;13.73;8.60;;;22.40;91.90;;;;;;4953173;28;20122;-65
2022/07/20 05:55:12;;;;;;;16.98;8.40;;;22.50;91.90;;;;;;4970813;28;20046;-65
2022/07/20 05:57:38;;;;;;;14.18;8.70;;;22.60;92.60;;;;;;4971363;28;20042;-65
2022/07/20 06:00:04;;;;;;;13.95;8.48;;;22.60;92.80;;;;;;4958200;28;20046;-65
2022/07/20 06:02:30;;;;;;;12.02;8.05;;;22.70;93.20;;;;;;4980959;28;20035;-64
2022/07/20 06:04:56;;;;;;;10.68;8.27;;;22.80;93.70;;;;;;4969687;28;20066;-64
2022/07/20 06:07:21;;;;;;;12.27;8.77;;;22.80;94.60;;;;;;4964381;28;20427;-65
2022/07/20 06:09:47;;;;;;;11.93;9.00;;;22.90;95.30;;;;;;4970641;28;20565;-65
2022/07/20 06:12:13;;;;;;;10.55;8.93;;;23.10;95.90;;;;;;4974798;28;20521;-64
2022/07/20 06:14:38;;;;;;;14.18;8.98;;;23.10;96.00;;;;;;4975058;28;20046;-64
2022/07/20 06:17:04;;;;;;;14.38;8.80;;;23.20;96.30;;;;;;4967157;28;20097;-65
2022/07/20 06:19:30;;;;;;;15.25;8.93;;;23.30;96.70;;;;;;4968630;28;20035;-65
2022/07/20 06:21:55;;;;;;;15.90;8.48;;;23.40;96.90;;;;;;4961942;28;20039;-65
2022/07/20 06:24:21;;;;;;;13.52;8.10;;;23.50;97.10;;;;;;4965615;28;20049;-66
2022/07/20 06:26:47;;;;;;;14.52;7.70;;;23.70;96.20;;;;;;4976169;28;20050;-64
2022/07/20 06:29:14;;;;;;;11.38;7.80;;;23.90;95.70;;;;;;4991109;28;20051;-64
2022/07/20 06:31:39;;;;;;;9.93;7.22;;;24.00;94.90;;;;;;4980064;28;20028;-65
2022/07/20 06:34:06;;;;;;;14.63;7.30;;;24.20;94.00;;;;;;4969428;28;20035;-65
2022/07/20 06:36:32;;;;;;;12.55;7.60;;;24.30;92.90;;;;;;4954143;28;20061;-63
2022/07/20 06:38:58;;;;;;;9.02;6.68;;;24.40;93.00;;;;;;4969954;28;20066;-65
2022/07/20 06:41:23;;;;;;;13.95;7.50;;;24.50;92.30;;;;;;4957087;28;20078;-66
2022/07/20 06:43:49;;;;;;;10.75;7.05;;;24.60;91.60;;;;;;4968120;28;20042;-66
2022/07/20 06:46:14;;;;;;;10.25;7.30;;;24.80;91.10;;;;;;4971611;28;20047;-67
2022/07/20 06:48:40;;;;;;;9.70;7.07;;;24.80;89.90;;;;;;4971632;28;20529;-67
2022/07/20 06:51:06;;;;;;;11.30;7.95;;;24.90;90.40;;;;;;4965289;28;20042;-67
2022/07/20 06:53:32;;;;;;;10.63;7.60;;;25.00;90.20;;;;;;4965480;28;20037;-67
2022/07/20 06:55:57;;;;;;;15.40;8.10;;;25.10;91.10;;;;;;4971651;28;20510;-67
2022/07/20 06:58:23;;;;;;;14.18;7.80;;;25.10;89.40;;;;;;4964181;28;20519;-66
2022/07/20 07:00:49;;;;;;;12.23;8.15;;;25.10;89.90;;;;;;4952789;28;20074;-67
2022/07/20 07:03:14;;;;;;;9.50;7.97;;;25.10;88.70;;;;;;4956746;28;20046;-67
2022/07/20 07:05:40;;;;;;;10.18;8.85;;;25.10;86.60;;;;;;4971101;28;20411;-67
2022/07/20 07:08:06;;;;;;;10.85;8.15;;;25.10;87.10;;;;;;4971502;28;20065;-67
2022/07/20 07:10:31;;;;;;;11.80;8.02;;;25.20;86.60;;;;;;4971830;28;20206;-68
2022/07/20 07:12:57;;;;;;;16.27;8.65;;;25.20;88.70;;;;;;4951020;28;20076;-67
2022/07/20 07:15:23;;;;;;;11.90;8.18;;;25.20;89.80;;;;;;4966865;28;20051;-67
2022/07/20 07:17:48;;;;;;;12.82;9.30;;;25.30;90.30;;;;;;4967605;28;20098;-68
2022/07/20 07:20:14;;;;;;;16.13;9.95;;;25.30;90.20;;;;;;4970501;28;20474;-68
2022/07/20 07:22:39;;;;;;;15.20;9.80;;;25.40;90.20;;;;;;4971578;28;20502;-70
2022/07/20 07:25:06;;;;;;;13.95;9.77;;;25.40;90.00;;;;;;4965858;28;20518;-66
2022/07/20 07:27:32;;;;;;;15.20;10.40;;;25.50;90.00;;;;;;4972558;28;20043;-66
2022/07/20 07:29:57;;;;;;;19.55;11.18;;;25.50;89.50;;;;;;4973194;28;20053;-66
2022/07/20 07:32:23;;;;;;;15.82;10.82;;;25.50;89.40;;;;;;4956631;28;20030;-66
2022/07/20 07:34:48;;;;;;;20.42;10.82;;;25.60;90.70;;;;;;4969825;28;20125;-66
2022/07/20 07:37:14;;;;;;;19.02;11.60;;;25.60;91.60;;;;;;4973606;28;20078;-66
2022/07/20 07:39:41;;;;;;;16.85;11.88;;;25.60;91.30;;;;;;4973901;28;20488;-66
2022/07/20 07:42:08;;;;;;;19.63;11.52;;;25.60;91.10;;;;;;4964604;28;20675;-66
2022/07/20 07:44:34;;;;;;;13.60;11.35;;;25.70;91.60;;;;;;4950755;28;20118;-66
2022/07/20 07:46:59;;;;;;;20.48;12.15;;;25.80;92.10;;;;;;4969958;28;20149;-66
2022/07/20 07:49:25;;;;;;;20.40;13.10;;;25.90;92.50;;;;;;4970649;28;20543;-67
2022/07/20 07:51:50;;;;;;;19.65;12.90;;;25.90;93.00;;;;;;4973256;28;20038;-69
2022/07/20 07:54:16;;;;;;;20.02;13.35;;;26.00;92.40;;;;;;4967515;28;20038;-66
2022/07/20 07:56:42;;;;;;;20.15;14.18;;;26.00;92.80;;;;;;4972824;28;20046;-65
2022/07/20 07:59:08;;;;;;;22.25;14.45;;;26.00;93.30;;;;;;4973185;28;20070;-65
2022/07/20 08:01:34;;;;;;;23.65;16.15;;;26.10;93.60;;;;;;4969440;28;20675;-65
2022/07/20 08:04:01;;;;;;;30.55;18.05;;;26.20;93.90;;;;;;4968220;28;20126;-65
2022/07/20 08:06:27;;;;;;;26.25;18.60;;;26.20;94.80;;;;;;4965578;28;20044;-65
2022/07/20 08:08:53;;;;;;;28.13;19.20;;;26.30;94.60;;;;;;4936509;28;20133;-65
2022/07/20 08:11:18;;;;;;;29.88;20.13;;;26.30;95.10;;;;;;4965682;28;20031;-66
2022/07/20 08:13:44;;;;;;;33.70;20.33;;;26.40;95.80;;;;;;4972530;28;20503;-66
2022/07/20 08:16:10;;;;;;;26.25;20.20;;;26.30;95.70;;;;;;4967329;28;20057;-65
2022/07/20 08:18:36;;;;;;;27.95;20.30;;;26.40;96.00;;;;;;4943839;28;20043;-65
2022/07/20 08:21:01;;;;;;;33.33;21.25;;;26.50;96.00;;;;;;4962662;28;20039;-64
2022/07/20 08:23:27;;;;;;;32.38;21.60;;;26.50;96.20;;;;;;4967895;28;20042;-65
2022/07/20 08:25:53;;;;;;;26.60;21.92;;;26.50;96.20;;;;;;4972274;28;20050;-65
2022/07/20 08:28:21;;;;;;;32.97;22.08;;;26.60;97.30;;;;;;4972451;28;20049;-65
2022/07/20 08:30:49;;;;;;;30.80;23.20;;;26.70;97.90;;;;;;4965246;28;20087;-66
2022/07/20 08:33:16;;;;;;;30.92;23.10;;;26.60;96.80;;;;;;4963231;28;20121;-65
2022/07/20 08:35:42;;;;;;;29.88;23.13;;;26.60;96.90;;;;;;4972154;28;20078;-65
2022/07/20 08:38:09;;;;;;;29.60;22.73;;;26.80;97.60;;;;;;4960731;28;20046;-65
2022/07/20 08:40:35;;;;;;;32.80;23.50;;;26.80;97.20;;;;;;4954094;28;20034;-65
2022/07/20 08:43:01;;;;;;;38.30;22.98;;;26.80;96.70;;;;;;4971956;28;20046;-65
2022/07/20 08:45:28;;;;;;;32.42;22.25;;;26.90;96.70;;;;;;4969151;28;20512;-65
2022/07/20 08:47:57;;;;;;;29.00;21.98;;;26.90;96.60;;;;;;4964705;28;20047;-65
2022/07/20 08:50:28;;;;;;;36.25;22.90;;;27.00;97.00;;;;;;4969752;28;20135;-65
2022/07/20 08:52:55;;;;;;;31.65;22.98;;;27.10;96.70;;;;;;4969230;28;20086;-65
2022/07/20 08:55:22;;;;;;;31.33;22.95;;;27.20;96.60;;;;;;4961210;28;20030;-65
2022/07/20 08:57:48;;;;;;;32.92;23.63;;;27.30;95.90;;;;;;4965965;28;20045;-65
2022/07/20 09:00:15;;;;;;;38.42;23.45;;;27.30;96.60;;;;;;4965511;28;20034;-65
2022/07/20 09:03:01;;;;;;;34.65;24.55;;;27.20;96.60;;;;;;4965257;28;20042;-65
2022/07/20 09:05:29;;;;;;;36.10;26.30;;;27.30;96.90;;;;;;4965746;28;20043;-65
2022/07/20 09:07:57;;;;;;;35.28;25.77;;;27.50;96.60;;;;;;4971187;28;20519;-65
2022/07/20 09:10:32;;;;;;;34.45;25.30;;;27.50;95.60;;;;;;4968754;28;20047;-65
2022/07/20 09:12:58;;;;;;;36.70;26.15;;;27.60;95.70;;;;;;4968300;28;20039;-64
2022/07/20 09:15:35;;;;;;;38.25;26.65;;;27.60;95.10;;;;;;4971014;28;20094;-65
2022/07/20 09:18:14;;;;;;;34.97;27.30;;;27.60;95.30;;;;;;4971625;28;20566;-65
2022/07/20 09:20:46;;;;;;;36.75;28.73;;;27.70;95.10;;;;;;4955613;28;20059;-65
2022/07/20 09:23:20;;;;;;;36.15;27.45;;;27.70;94.80;;;;;;4970131;28;20443;-64
2022/07/20 09:26:11;;;;;;;39.17;28.52;;;27.80;94.70;;;;;;4971683;28;20074;-65
2022/07/20 09:28:43;;;;;;;37.08;28.10;;;27.90;94.20;;;;;;4960388;28;20074;-65
2022/07/20 09:31:22;;;;;;;33.80;29.38;;;27.90;93.40;;;;;;4970728;28;20047;-65
2022/07/20 09:33:57;;;;;;;38.45;29.60;;;27.80;92.40;;;;;;4971495;28;20141;-65
2022/07/20 09:36:25;;;;;;;36.22;30.02;;;27.90;92.10;;;;;;4967272;28;20053;-65
2022/07/20 09:38:51;;;;;;;43.80;28.60;;;27.90;91.20;;;;;;4968198;28;20035;-64
2022/07/20 09:41:31;;;;;;;35.05;29.10;;;28.00;91.10;;;;;;4971527;28;20046;-64
2022/07/20 09:43:58;;;;;;;38.28;29.88;;;28.10;91.50;;;;;;4964864;28;20077;-65
2022/07/20 09:46:32;;;;;;;34.58;28.67;;;28.10;91.10;;;;;;4946915;28;20053;-64
2022/07/20 09:49:06;;;;;;;36.28;28.13;;;28.20;91.20;;;;;;4971308;28;20089;-65
2022/07/20 09:51:38;;;;;;;34.88;27.50;;;28.30;90.70;;;;;;4971465;28;20053;-64
2022/07/20 09:54:05;;;;;;;29.77;25.67;;;28.30;90.50;;;;;;4959967;28;20043;-64
2022/07/20 09:56:32;;;;;;;33.33;24.75;;;28.30;90.10;;;;;;4967068;28;20093;-64
2022/07/20 09:59:02;;;;;;;33.33;25.98;;;28.20;89.50;;;;;;4954660;28;20039;-64
2022/07/20 10:01:29;;;;;;;34.15;25.67;;;28.20;89.10;;;;;;4964456;28;20037;-64
2022/07/20 10:03:58;;;;;;;32.80;25.58;;;28.20;89.80;;;;;;4962330;28;20046;-64
2022/07/20 10:06:25;;;;;;;32.33;24.70;;;28.30;90.50;;;;;;4971314;28;20046;-64
2022/07/20 10:08:51;;;;;;;33.13;24.83;;;28.30;90.20;;;;;;4967029;28;20039;-64
2022/07/20 10:11:19;;;;;;;33.15;23.27;;;28.30;90.30;;;;;;4957753;28;20039;-64
2022/07/20 10:13:45;;;;;;;32.00;23.27;;;28.40;90.60;;;;;;4964751;28;20423;-64
2022/07/20 10:16:11;;;;;;;30.30;21.33;;;28.30;89.60;;;;;;4969919;28;20276;-64
2022/07/20 10:18:37;;;;;;;28.08;21.60;;;28.30;87.50;;;;;;4961926;28;20487;-64
2022/07/20 10:21:34;;;;;;;23.95;19.95;;;28.30;87.10;;;;;;4969793;28;20093;-64
2022/07/20 10:24:25;;;;;;;24.38;18.30;;;28.40;82.60;;;;;;4971533;28;20094;-65
2022/07/20 10:27:24;;;;;;;21.48;18.20;;;28.50;79.70;;;;;;4962868;28;20039;-64
2022/07/20 10:29:55;;;;;;;22.65;16.88;;;28.50;81.10;;;;;;4960045;28;20035;-64
2022/07/20 10:32:23;;;;;;;22.70;16.42;;;28.60;80.60;;;;;;4963226;28;20054;-64
2022/07/20 10:34:56;;;;;;;23.83;15.77;;;28.60;81.30;;;;;;4961554;28;20042;-64
2022/07/20 10:37:27;;;;;;;19.30;15.27;;;28.50;79.90;;;;;;4965701;28;20093;-64
2022/07/20 10:40:09;;;;;;;20.10;15.48;;;28.50;78.80;;;;;;4971239;28;20042;-66
2022/07/20 10:42:39;;;;;;;25.17;15.38;;;28.50;78.10;;;;;;4970908;28;20499;-66
2022/07/20 10:45:16;;;;;;;19.60;14.30;;;28.40;78.30;;;;;;4958310;28;20035;-66
2022/07/20 10:47:53;;;;;;;21.45;14.70;;;28.40;78.60;;;;;;4966482;28;20031;-66
2022/07/20 10:50:34;;;;;;;22.42;16.23;;;28.40;78.40;;;;;;4950800;28;20165;-65
2022/07/20 10:53:11;;;;;;;22.83;15.57;;;28.50;78.80;;;;;;4948785;28;20579;-66
2022/07/20 10:55:37;;;;;;;20.77;14.82;;;28.50;78.50;;;;;;4972518;28;20057;-66
2022/07/20 10:58:12;;;;;;;19.83;14.35;;;28.50;79.50;;;;;;4974404;28;20043;-66
2022/07/20 11:00:38;;;;;;;20.42;14.55;;;28.50;77.40;;;;;;4968233;28;20046;-66
2022/07/20 11:03:27;;;;;;;20.35;14.45;;;28.50;78.00;;;;;;4991320;28;20038;-66
2022/07/20 11:06:18;;;;;;;15.95;14.25;;;28.60;78.00;;;;;;4984576;28;20050;-66
2022/07/20 11:08:50;;;;;;;22.08;15.10;;;28.70;78.20;;;;;;4968368;28;20043;-65
2022/07/20 11:11:20;;;;;;;19.77;15.20;;;28.70;78.90;;;;;;4965548;28;20041;-66
2022/07/20 11:13:47;;;;;;;24.08;15.43;;;28.70;79.90;;;;;;4970182;28;20510;-66
2022/07/20 11:16:13;;;;;;;19.25;13.98;;;28.80;79.70;;;;;;4976254;28;20808;-66
2022/07/20 11:18:39;;;;;;;18.23;13.85;;;28.90;79.90;;;;;;4993500;28;20035;-65
2022/07/20 11:21:08;;;;;;;17.15;13.23;;;29.00;79.60;;;;;;4992297;28;20081;-66
2022/07/20 11:23:48;;;;;;;16.67;12.55;;;28.90;79.50;;;;;;4974860;28;20043;-65
2022/07/20 11:26:20;;;;;;;16.75;11.65;;;28.90;77.80;;;;;;4965781;28;20145;-65
2022/07/20 11:28:55;;;;;;;19.67;11.57;;;28.80;78.30;;;;;;4972538;28;20041;-65
2022/07/20 11:31:25;;;;;;;16.75;12.05;;;28.90;78.20;;;;;;4965949;28;20535;-66
2022/07/20 11:33:52;;;;;;;14.90;12.10;;;29.00;79.60;;;;;;4965294;28;20046;-65
2022/07/20 11:36:34;;;;;;;17.77;12.98;;;28.90;76.70;;;;;;4973359;28;20498;-65
2022/07/20 11:39:06;;;;;;;15.55;12.07;;;29.00;77.70;;;;;;4973496;28;20055;-65
2022/07/20 11:41:36;;;;;;;16.20;12.65;;;29.00;78.20;;;;;;4948545;28;20132;-65
2022/07/20 11:44:04;;;;;;;14.75;11.27;;;28.90;78.00;;;;;;4968670;28;20035;-65
2022/07/20 11:46:40;;;;;;;21.42;12.02;;;29.00;78.40;;;;;;4973272;28;20097;-65
2022/07/20 11:49:08;;;;;;;15.60;11.70;;;29.10;77.60;;;;;;4973458;28;20053;-65
2022/07/20 11:51:36;;;;;;;20.63;12.57;;;29.20;78.60;;;;;;4965271;28;20041;-65
2022/07/20 11:54:03;;;;;;;17.60;11.68;;;29.10;78.30;;;;;;4972688;28;20624;-65
2022/07/20 11:56:31;;;;;;;16.50;11.32;;;29.10;77.70;;;;;;4973401;28;20488;-65
2022/07/20 11:58:58;;;;;;;20.05;11.07;;;29.10;77.50;;;;;;4961634;28;20031;-65
2022/07/20 12:01:29;;;;;;;13.25;10.93;;;29.20;77.80;;;;;;4967478;28;20549;-65
2022/07/20 12:03:58;;;;;;;16.52;10.25;;;29.30;76.70;;;;;;4969909;28;20041;-65
2022/07/20 12:06:32;;;;;;;15.55;11.18;;;29.20;75.60;;;;;;4972991;28;20047;-65
2022/07/20 12:09:08;;;;;;;16.98;11.57;;;29.20;76.70;;;;;;4966897;28;20039;-65
2022/07/20 12:11:35;;;;;;;18.90;11.48;;;29.20;76.00;;;;;;4972447;28;20507;-66
2022/07/20 12:14:01;;;;;;;12.95;10.07;;;29.30;76.50;;;;;;4968426;28;20046;-66
2022/07/20 12:16:45;;;;;;;15.23;10.98;;;29.40;74.90;;;;;;4959666;28;20042;-66
2022/07/20 12:19:11;;;;;;;18.02;11.07;;;29.40;75.30;;;;;;4972456;28;20406;-66
2022/07/20 12:21:43;;;;;;;17.05;10.48;;;29.40;72.90;;;;;;4964519;28;20607;-66
2022/07/20 12:24:09;;;;;;;13.48;10.10;;;29.40;72.00;;;;;;4959489;28;20079;-65
2022/07/20 12:26:35;;;;;;;15.55;10.35;;;29.40;72.40;;;;;;4965737;28;20062;-66
2022/07/20 12:29:17;;;;;;;16.75;10.50;;;29.60;71.60;;;;;;4972308;28;20299;-66
2022/07/20 12:31:44;;;;;;;14.15;10.27;;;29.70;71.00;;;;;;4956182;28;20679;-66
2022/07/20 12:34:12;;;;;;;14.20;9.82;;;29.70;71.20;;;;;;4971334;28;20043;-66
2022/07/20 12:36:40;;;;;;;12.88;10.48;;;29.80;70.40;;;;;;4954864;28;20043;-66
2022/07/20 12:39:08;;;;;;;15.35;10.90;;;29.90;71.80;;;;;;4969855;28;20691;-65